Terminal Aerodrome Forecast
Issued by NWS Hastings, NE

Home | Current Version | Previous Version | Text Only | Print | Product List | Glossary On
Versions: 1 2 3 4 5 6 7 8 9 10 11 12 13 14 15 16 17 18 19 20 21 22 23 24 25 26 27 28 29 30 31 32 33 34
000
FTUS43 KGID 240520
TAFGRI
TAF
KGRI 240520Z 2406/2506 18010KT P6SM FEW250
     FM240700 18010KT P6SM FEW250 WS010/21040KT
     FM241100 19008KT P6SM FEW040 SCT150
     FM241500 18012G16KT P6SM FEW050 SCT150
     FM250100 15010KT P6SM SCT060 BKN150=

USA.gov is the U.S. government's official web portal to all federal, state and local government web resources and services.